sensor_id;sensor_type;location;lat;lon;timestamp;P1;durP1;ratioP1;P2;durP2;ratioP2
12658;SDS011;6394;52.488;13.386;2022-12-18T00:02:04;25.13;;;12.27;;
12658;SDS011;6394;52.488;13.386;2022-12-18T00:04:31;29.07;;;13.90;;
12658;SDS011;6394;52.488;13.386;2022-12-18T00:06:59;27.27;;;13.40;;
12658;SDS011;6394;52.488;13.386;2022-12-18T00:09:26;32.93;;;14.47;;
12658;SDS011;6394;52.488;13.386;2022-12-18T00:11:53;28.13;;;13.63;;
12658;SDS011;6394;52.488;13.386;2022-12-18T00:14:22;28.97;;;14.30;;
12658;SDS011;6394;52.488;13.386;2022-12-18T00:16:49;31.10;;;14.03;;
12658;SDS011;6394;52.488;13.386;2022-12-18T00:19:16;33.27;;;14.00;;
12658;SDS011;6394;52.488;13.386;2022-12-18T00:21:43;29.93;;;14.40;;
12658;SDS011;6394;52.488;13.386;2022-12-18T00:24:10;28.47;;;13.17;;
12658;SDS011;6394;52.488;13.386;2022-12-18T00:26:38;34.67;;;15.50;;
12658;SDS011;6394;52.488;13.386;2022-12-18T00:29:06;31.30;;;14.17;;
12658;SDS011;6394;52.488;13.386;2022-12-18T00:31:35;32.90;;;15.00;;
12658;SDS011;6394;52.488;13.386;2022-12-18T00:34:02;32.60;;;15.53;;
12658;SDS011;6394;52.488;13.386;2022-12-18T00:36:31;32.97;;;14.87;;
12658;SDS011;6394;52.488;13.386;2022-12-18T00:38:59;30.63;;;14.10;;
12658;SDS011;6394;52.488;13.386;2022-12-18T00:41:26;34.13;;;15.03;;
12658;SDS011;6394;52.488;13.386;2022-12-18T00:44:12;28.93;;;14.30;;
12658;SDS011;6394;52.488;13.386;2022-12-18T00:46:41;33.73;;;15.83;;
12658;SDS011;6394;52.488;13.386;2022-12-18T00:49:08;27.30;;;13.73;;
12658;SDS011;6394;52.488;13.386;2022-12-18T00:51:35;30.53;;;13.60;;
12658;SDS011;6394;52.488;13.386;2022-12-18T00:54:02;28.27;;;13.70;;
12658;SDS011;6394;52.488;13.386;2022-12-18T00:56:30;30.73;;;14.10;;
12658;SDS011;6394;52.488;13.386;2022-12-18T00:58:57;32.77;;;14.87;;
12658;SDS011;6394;52.488;13.386;2022-12-18T01:01:24;30.93;;;13.67;;
12658;SDS011;6394;52.488;13.386;2022-12-18T01:03:53;29.97;;;13.90;;
12658;SDS011;6394;52.488;13.386;2022-12-18T01:06:20;29.57;;;14.43;;
12658;SDS011;6394;52.488;13.386;2022-12-18T01:08:47;32.57;;;14.87;;
12658;SDS011;6394;52.488;13.386;2022-12-18T01:11:16;34.60;;;14.07;;
12658;SDS011;6394;52.488;13.386;2022-12-18T01:13:43;24.70;;;12.80;;
12658;SDS011;6394;52.488;13.386;2022-12-18T01:16:11;27.43;;;13.00;;
12658;SDS011;6394;52.488;13.386;2022-12-18T01:18:38;26.03;;;13.17;;
12658;SDS011;6394;52.488;13.386;2022-12-18T01:21:08;29.87;;;13.77;;
12658;SDS011;6394;52.488;13.386;2022-12-18T01:23:35;30.97;;;13.90;;
12658;SDS011;6394;52.488;13.386;2022-12-18T01:26:06;30.10;;;14.33;;
12658;SDS011;6394;52.488;13.386;2022-12-18T01:28:33;30.23;;;13.30;;
12658;SDS011;6394;52.488;13.386;2022-12-18T01:31:14;28.03;;;13.07;;
12658;SDS011;6394;52.488;13.386;2022-12-18T01:33:42;29.37;;;14.17;;
12658;SDS011;6394;52.488;13.386;2022-12-18T01:36:15;26.20;;;12.53;;
12658;SDS011;6394;52.488;13.386;2022-12-18T01:38:42;30.37;;;13.03;;
12658;SDS011;6394;52.488;13.386;2022-12-18T01:41:09;27.77;;;13.50;;
12658;SDS011;6394;52.488;13.386;2022-12-18T01:43:41;32.33;;;14.33;;
12658;SDS011;6394;52.488;13.386;2022-12-18T01:46:08;28.77;;;13.60;;
12658;SDS011;6394;52.488;13.386;2022-12-18T01:48:35;33.67;;;14.47;;
12658;SDS011;6394;52.488;13.386;2022-12-18T01:51:02;30.50;;;13.93;;
12658;SDS011;6394;52.488;13.386;2022-12-18T01:53:32;32.93;;;14.57;;
12658;SDS011;6394;52.488;13.386;2022-12-18T01:55:59;32.27;;;14.90;;
12658;SDS011;6394;52.488;13.386;2022-12-18T01:58:28;31.33;;;14.33;;
12658;SDS011;6394;52.488;13.386;2022-12-18T02:00:57;32.80;;;15.27;;
12658;SDS011;6394;52.488;13.386;2022-12-18T02:03:24;28.90;;;14.00;;
12658;SDS011;6394;52.488;13.386;2022-12-18T02:05:53;32.47;;;15.00;;
12658;SDS011;6394;52.488;13.386;2022-12-18T02:08:23;30.43;;;13.93;;
12658;SDS011;6394;52.488;13.386;2022-12-18T02:10:56;31.00;;;14.67;;
12658;SDS011;6394;52.488;13.386;2022-12-18T02:13:27;30.47;;;14.83;;
12658;SDS011;6394;52.488;13.386;2022-12-18T02:15:58;29.87;;;14.17;;
12658;SDS011;6394;52.488;13.386;2022-12-18T02:18:30;30.43;;;14.37;;
12658;SDS011;6394;52.488;13.386;2022-12-18T02:20:59;32.23;;;15.90;;
12658;SDS011;6394;52.488;13.386;2022-12-18T02:23:40;33.97;;;15.73;;
12658;SDS011;6394;52.488;13.386;2022-12-18T02:26:15;44.03;;;18.23;;
12658;SDS011;6394;52.488;13.386;2022-12-18T02:28:44;39.17;;;18.03;;
12658;SDS011;6394;52.488;13.386;2022-12-18T02:31:13;42.07;;;18.17;;
12658;SDS011;6394;52.488;13.386;2022-12-18T02:33:41;35.27;;;15.63;;
12658;SDS011;6394;52.488;13.386;2022-12-18T02:36:10;34.83;;;15.27;;
12658;SDS011;6394;52.488;13.386;2022-12-18T02:38:37;38.27;;;16.60;;
12658;SDS011;6394;52.488;13.386;2022-12-18T02:41:05;36.10;;;16.87;;
12658;SDS011;6394;52.488;13.386;2022-12-18T02:43:34;42.10;;;18.07;;
12658;SDS011;6394;52.488;13.386;2022-12-18T02:48:43;49.77;;;20.13;;
12658;SDS011;6394;52.488;13.386;2022-12-18T02:51:11;45.27;;;18.97;;
12658;SDS011;6394;52.488;13.386;2022-12-18T02:53:43;42.17;;;18.47;;
12658;SDS011;6394;52.488;13.386;2022-12-18T02:56:12;42.60;;;19.67;;
12658;SDS011;6394;52.488;13.386;2022-12-18T02:58:45;40.73;;;19.13;;
12658;SDS011;6394;52.488;13.386;2022-12-18T03:01:15;36.47;;;18.00;;
12658;SDS011;6394;52.488;13.386;2022-12-18T03:03:44;47.27;;;19.13;;
12658;SDS011;6394;52.488;13.386;2022-12-18T03:06:16;41.37;;;19.40;;
12658;SDS011;6394;52.488;13.386;2022-12-18T03:08:46;45.47;;;19.37;;
12658;SDS011;6394;52.488;13.386;2022-12-18T03:11:14;35.17;;;16.37;;
12658;SDS011;6394;52.488;13.386;2022-12-18T03:14:03;32.53;;;14.47;;
12658;SDS011;6394;52.488;13.386;2022-12-18T03:16:30;37.17;;;15.77;;
12658;SDS011;6394;52.488;13.386;2022-12-18T03:18:58;42.90;;;18.13;;
12658;SDS011;6394;52.488;13.386;2022-12-18T03:21:28;41.63;;;17.93;;
12658;SDS011;6394;52.488;13.386;2022-12-18T03:23:55;39.90;;;17.80;;
12658;SDS011;6394;52.488;13.386;2022-12-18T03:26:24;41.20;;;18.17;;
12658;SDS011;6394;52.488;13.386;2022-12-18T03:28:53;47.63;;;19.53;;
12658;SDS011;6394;52.488;13.386;2022-12-18T03:31:22;43.57;;;19.47;;
12658;SDS011;6394;52.488;13.386;2022-12-18T03:33:51;42.67;;;18.77;;
12658;SDS011;6394;52.488;13.386;2022-12-18T03:36:19;50.73;;;20.87;;
12658;SDS011;6394;52.488;13.386;2022-12-18T03:38:46;48.60;;;19.90;;
12658;SDS011;6394;52.488;13.386;2022-12-18T03:41:15;46.23;;;19.67;;
12658;SDS011;6394;52.488;13.386;2022-12-18T03:43:45;48.00;;;20.87;;
12658;SDS011;6394;52.488;13.386;2022-12-18T03:46:17;47.23;;;19.90;;
12658;SDS011;6394;52.488;13.386;2022-12-18T03:48:51;47.40;;;20.03;;
12658;SDS011;6394;52.488;13.386;2022-12-18T03:51:21;51.10;;;20.57;;
12658;SDS011;6394;52.488;13.386;2022-12-18T03:53:51;46.73;;;19.30;;
12658;SDS011;6394;52.488;13.386;2022-12-18T03:56:20;50.37;;;20.87;;
12658;SDS011;6394;52.488;13.386;2022-12-18T03:58:49;52.03;;;21.00;;
12658;SDS011;6394;52.488;13.386;2022-12-18T04:01:17;52.90;;;21.40;;
12658;SDS011;6394;52.488;13.386;2022-12-18T04:03:46;50.63;;;21.03;;
12658;SDS011;6394;52.488;13.386;2022-12-18T04:06:16;52.83;;;20.73;;
12658;SDS011;6394;52.488;13.386;2022-12-18T04:08:44;50.10;;;19.93;;
12658;SDS011;6394;52.488;13.386;2022-12-18T04:11:12;49.57;;;20.43;;
12658;SDS011;6394;52.488;13.386;2022-12-18T04:13:39;49.30;;;21.00;;
12658;SDS011;6394;52.488;13.386;2022-12-18T04:16:09;53.13;;;20.57;;
12658;SDS011;6394;52.488;13.386;2022-12-18T04:18:36;50.10;;;20.87;;
12658;SDS011;6394;52.488;13.386;2022-12-18T04:21:03;44.87;;;20.10;;
12658;SDS011;6394;52.488;13.386;2022-12-18T04:23:32;52.07;;;19.63;;
12658;SDS011;6394;52.488;13.386;2022-12-18T04:26:00;48.80;;;20.00;;
12658;SDS011;6394;52.488;13.386;2022-12-18T04:28:27;41.37;;;17.90;;
12658;SDS011;6394;52.488;13.386;2022-12-18T04:30:54;43.20;;;17.73;;
12658;SDS011;6394;52.488;13.386;2022-12-18T04:33:21;40.23;;;16.47;;
12658;SDS011;6394;52.488;13.386;2022-12-18T04:35:48;40.23;;;17.03;;
12658;SDS011;6394;52.488;13.386;2022-12-18T04:38:15;40.60;;;16.73;;
12658;SDS011;6394;52.488;13.386;2022-12-18T04:40:44;37.50;;;16.80;;
12658;SDS011;6394;52.488;13.386;2022-12-18T04:43:11;35.63;;;15.27;;
12658;SDS011;6394;52.488;13.386;2022-12-18T04:45:38;40.93;;;17.63;;
12658;SDS011;6394;52.488;13.386;2022-12-18T04:48:06;33.80;;;16.30;;
12658;SDS011;6394;52.488;13.386;2022-12-18T04:50:33;43.07;;;17.83;;
12658;SDS011;6394;52.488;13.386;2022-12-18T04:53:00;43.33;;;17.10;;
12658;SDS011;6394;52.488;13.386;2022-12-18T04:55:27;40.03;;;17.63;;
12658;SDS011;6394;52.488;13.386;2022-12-18T04:57:56;38.07;;;16.03;;
12658;SDS011;6394;52.488;13.386;2022-12-18T05:00:24;40.37;;;16.43;;
12658;SDS011;6394;52.488;13.386;2022-12-18T05:02:51;36.77;;;15.47;;
12658;SDS011;6394;52.488;13.386;2022-12-18T05:05:18;32.33;;;15.00;;
12658;SDS011;6394;52.488;13.386;2022-12-18T05:07:46;37.00;;;15.77;;
12658;SDS011;6394;52.488;13.386;2022-12-18T05:10:13;33.20;;;14.43;;
12658;SDS011;6394;52.488;13.386;2022-12-18T05:12:40;34.93;;;15.13;;
12658;SDS011;6394;52.488;13.386;2022-12-18T05:15:22;32.73;;;14.37;;
12658;SDS011;6394;52.488;13.386;2022-12-18T05:17:49;32.23;;;14.27;;
12658;SDS011;6394;52.488;13.386;2022-12-18T05:20:17;33.07;;;14.47;;
12658;SDS011;6394;52.488;13.386;2022-12-18T05:22:44;34.33;;;15.67;;
12658;SDS011;6394;52.488;13.386;2022-12-18T05:25:11;29.80;;;14.67;;
12658;SDS011;6394;52.488;13.386;2022-12-18T05:27:39;35.00;;;15.53;;
12658;SDS011;6394;52.488;13.386;2022-12-18T05:30:06;38.60;;;15.97;;
12658;SDS011;6394;52.488;13.386;2022-12-18T05:32:35;32.53;;;14.40;;
12658;SDS011;6394;52.488;13.386;2022-12-18T05:35:03;37.60;;;16.00;;
12658;SDS011;6394;52.488;13.386;2022-12-18T05:37:31;35.63;;;14.93;;
12658;SDS011;6394;52.488;13.386;2022-12-18T05:39:58;36.20;;;15.40;;
12658;SDS011;6394;52.488;13.386;2022-12-18T05:42:25;36.30;;;15.03;;
12658;SDS011;6394;52.488;13.386;2022-12-18T05:44:52;33.43;;;15.60;;
12658;SDS011;6394;52.488;13.386;2022-12-18T05:47:19;39.30;;;15.63;;
12658;SDS011;6394;52.488;13.386;2022-12-18T05:49:48;34.20;;;15.23;;
12658;SDS011;6394;52.488;13.386;2022-12-18T05:52:15;37.17;;;16.13;;
12658;SDS011;6394;52.488;13.386;2022-12-18T05:54:42;41.10;;;15.90;;
12658;SDS011;6394;52.488;13.386;2022-12-18T05:57:09;38.40;;;17.40;;
12658;SDS011;6394;52.488;13.386;2022-12-18T05:59:37;42.70;;;17.37;;
12658;SDS011;6394;52.488;13.386;2022-12-18T06:02:04;40.77;;;17.07;;
12658;SDS011;6394;52.488;13.386;2022-12-18T06:04:31;41.70;;;17.03;;
12658;SDS011;6394;52.488;13.386;2022-12-18T06:07:00;39.47;;;15.97;;
12658;SDS011;6394;52.488;13.386;2022-12-18T06:09:28;40.73;;;17.40;;
12658;SDS011;6394;52.488;13.386;2022-12-18T06:11:55;40.80;;;18.00;;
12658;SDS011;6394;52.488;13.386;2022-12-18T06:14:22;41.87;;;17.67;;
12658;SDS011;6394;52.488;13.386;2022-12-18T06:16:50;40.17;;;16.67;;
12658;SDS011;6394;52.488;13.386;2022-12-18T06:19:17;43.07;;;18.07;;
12658;SDS011;6394;52.488;13.386;2022-12-18T06:21:44;42.70;;;17.07;;
12658;SDS011;6394;52.488;13.386;2022-12-18T06:24:13;36.03;;;16.53;;
12658;SDS011;6394;52.488;13.386;2022-12-18T06:26:40;45.00;;;18.00;;
12658;SDS011;6394;52.488;13.386;2022-12-18T06:29:07;36.13;;;17.33;;
12658;SDS011;6394;52.488;13.386;2022-12-18T06:31:34;40.03;;;17.50;;
12658;SDS011;6394;52.488;13.386;2022-12-18T06:34:02;38.90;;;17.20;;
12658;SDS011;6394;52.488;13.386;2022-12-18T06:36:30;35.57;;;16.80;;
12658;SDS011;6394;52.488;13.386;2022-12-18T06:38:57;40.33;;;17.40;;
12658;SDS011;6394;52.488;13.386;2022-12-18T06:41:26;38.97;;;17.03;;
12658;SDS011;6394;52.488;13.386;2022-12-18T06:43:53;39.13;;;18.63;;
12658;SDS011;6394;52.488;13.386;2022-12-18T06:46:20;37.03;;;17.20;;
12658;SDS011;6394;52.488;13.386;2022-12-18T06:48:48;37.80;;;16.90;;
12658;SDS011;6394;52.488;13.386;2022-12-18T06:51:16;39.93;;;17.63;;
12658;SDS011;6394;52.488;13.386;2022-12-18T06:53:44;37.47;;;17.10;;
12658;SDS011;6394;52.488;13.386;2022-12-18T06:56:11;39.40;;;17.57;;
12658;SDS011;6394;52.488;13.386;2022-12-18T06:58:39;34.47;;;16.83;;
12658;SDS011;6394;52.488;13.386;2022-12-18T07:01:07;36.70;;;15.53;;
12658;SDS011;6394;52.488;13.386;2022-12-18T07:03:35;35.33;;;15.83;;
12658;SDS011;6394;52.488;13.386;2022-12-18T07:06:02;34.77;;;15.97;;
12658;SDS011;6394;52.488;13.386;2022-12-18T07:08:30;36.10;;;15.93;;
12658;SDS011;6394;52.488;13.386;2022-12-18T07:10:57;38.00;;;16.97;;
12658;SDS011;6394;52.488;13.386;2022-12-18T07:13:24;37.13;;;15.67;;
12658;SDS011;6394;52.488;13.386;2022-12-18T07:15:53;37.97;;;16.77;;
12658;SDS011;6394;52.488;13.386;2022-12-18T07:18:20;36.47;;;16.00;;
12658;SDS011;6394;52.488;13.386;2022-12-18T07:20:47;40.23;;;17.67;;
12658;SDS011;6394;52.488;13.386;2022-12-18T07:23:14;35.00;;;16.53;;
12658;SDS011;6394;52.488;13.386;2022-12-18T07:25:41;37.30;;;16.97;;
12658;SDS011;6394;52.488;13.386;2022-12-18T07:28:09;43.57;;;18.07;;
12658;SDS011;6394;52.488;13.386;2022-12-18T07:30:37;35.63;;;16.47;;
12658;SDS011;6394;52.488;13.386;2022-12-18T07:33:06;35.17;;;15.87;;
12658;SDS011;6394;52.488;13.386;2022-12-18T07:35:33;38.23;;;16.60;;
12658;SDS011;6394;52.488;13.386;2022-12-18T07:38:00;37.80;;;16.63;;
12658;SDS011;6394;52.488;13.386;2022-12-18T07:40:28;39.57;;;15.63;;
12658;SDS011;6394;52.488;13.386;2022-12-18T07:42:55;42.67;;;17.77;;
12658;SDS011;6394;52.488;13.386;2022-12-18T07:45:22;43.47;;;17.37;;
12658;SDS011;6394;52.488;13.386;2022-12-18T07:47:49;41.43;;;18.30;;
12658;SDS011;6394;52.488;13.386;2022-12-18T07:50:18;42.73;;;17.53;;
12658;SDS011;6394;52.488;13.386;2022-12-18T07:52:45;42.90;;;17.00;;
12658;SDS011;6394;52.488;13.386;2022-12-18T07:55:12;42.67;;;16.43;;
12658;SDS011;6394;52.488;13.386;2022-12-18T07:57:40;36.20;;;16.83;;
12658;SDS011;6394;52.488;13.386;2022-12-18T08:00:07;37.93;;;17.03;;
12658;SDS011;6394;52.488;13.386;2022-12-18T08:02:34;38.40;;;16.27;;
12658;SDS011;6394;52.488;13.386;2022-12-18T08:05:02;44.00;;;16.43;;
12658;SDS011;6394;52.488;13.386;2022-12-18T08:07:30;36.27;;;16.30;;
12658;SDS011;6394;52.488;13.386;2022-12-18T08:09:57;43.27;;;17.60;;
12658;SDS011;6394;52.488;13.386;2022-12-18T08:12:25;39.07;;;17.47;;
12658;SDS011;6394;52.488;13.386;2022-12-18T08:14:52;38.37;;;17.53;;
12658;SDS011;6394;52.488;13.386;2022-12-18T08:17:19;42.20;;;18.07;;
12658;SDS011;6394;52.488;13.386;2022-12-18T08:19:46;37.73;;;16.43;;
12658;SDS011;6394;52.488;13.386;2022-12-18T08:22:13;40.37;;;17.60;;
12658;SDS011;6394;52.488;13.386;2022-12-18T08:24:42;33.57;;;16.70;;
12658;SDS011;6394;52.488;13.386;2022-12-18T08:27:09;38.27;;;17.17;;
12658;SDS011;6394;52.488;13.386;2022-12-18T08:29:36;32.73;;;14.50;;
12658;SDS011;6394;52.488;13.386;2022-12-18T08:32:04;37.97;;;16.60;;
12658;SDS011;6394;52.488;13.386;2022-12-18T08:34:31;39.67;;;16.27;;
12658;SDS011;6394;52.488;13.386;2022-12-18T08:36:58;34.60;;;16.33;;
12658;SDS011;6394;52.488;13.386;2022-12-18T08:39:25;37.07;;;16.30;;
12658;SDS011;6394;52.488;13.386;2022-12-18T08:41:54;36.63;;;16.53;;
12658;SDS011;6394;52.488;13.386;2022-12-18T08:44:39;30.53;;;15.20;;
12658;SDS011;6394;52.488;13.386;2022-12-18T08:47:06;33.37;;;15.80;;
12658;SDS011;6394;52.488;13.386;2022-12-18T08:49:34;35.20;;;16.70;;
12658;SDS011;6394;52.488;13.386;2022-12-18T08:52:02;33.83;;;16.03;;
12658;SDS011;6394;52.488;13.386;2022-12-18T08:54:29;32.50;;;16.17;;
12658;SDS011;6394;52.488;13.386;2022-12-18T08:56:57;32.07;;;15.43;;
12658;SDS011;6394;52.488;13.386;2022-12-18T08:59:28;34.33;;;15.83;;
12658;SDS011;6394;52.488;13.386;2022-12-18T09:01:55;32.30;;;16.33;;
12658;SDS011;6394;52.488;13.386;2022-12-18T09:04:22;30.67;;;15.03;;
12658;SDS011;6394;52.488;13.386;2022-12-18T09:06:49;31.10;;;15.70;;
12658;SDS011;6394;52.488;13.386;2022-12-18T09:09:16;31.10;;;15.53;;
12658;SDS011;6394;52.488;13.386;2022-12-18T09:11:44;31.90;;;15.50;;
12658;SDS011;6394;52.488;13.386;2022-12-18T09:14:12;30.67;;;15.70;;
12658;SDS011;6394;52.488;13.386;2022-12-18T09:16:39;29.97;;;14.17;;
12658;SDS011;6394;52.488;13.386;2022-12-18T09:19:07;32.10;;;15.90;;
12658;SDS011;6394;52.488;13.386;2022-12-18T09:21:34;31.43;;;15.87;;
12658;SDS011;6394;52.488;13.386;2022-12-18T09:24:02;34.63;;;15.93;;
12658;SDS011;6394;52.488;13.386;2022-12-18T09:26:29;33.80;;;15.80;;
12658;SDS011;6394;52.488;13.386;2022-12-18T09:28:56;29.40;;;15.63;;
12658;SDS011;6394;52.488;13.386;2022-12-18T09:31:26;34.07;;;15.10;;
12658;SDS011;6394;52.488;13.386;2022-12-18T09:33:54;32.93;;;14.73;;
12658;SDS011;6394;52.488;13.386;2022-12-18T09:36:21;28.33;;;14.53;;
12658;SDS011;6394;52.488;13.386;2022-12-18T09:38:48;31.37;;;15.57;;
12658;SDS011;6394;52.488;13.386;2022-12-18T09:41:19;31.73;;;13.47;;
12658;SDS011;6394;52.488;13.386;2022-12-18T09:43:52;33.17;;;16.57;;
12658;SDS011;6394;52.488;13.386;2022-12-18T09:46:23;32.20;;;15.37;;
12658;SDS011;6394;52.488;13.386;2022-12-18T09:48:54;32.50;;;15.50;;
12658;SDS011;6394;52.488;13.386;2022-12-18T09:51:22;31.17;;;14.83;;
12658;SDS011;6394;52.488;13.386;2022-12-18T09:53:51;30.43;;;15.07;;
12658;SDS011;6394;52.488;13.386;2022-12-18T09:56:20;31.07;;;14.83;;
12658;SDS011;6394;52.488;13.386;2022-12-18T09:58:51;32.57;;;14.97;;
12658;SDS011;6394;52.488;13.386;2022-12-18T10:01:21;32.67;;;15.50;;
12658;SDS011;6394;52.488;13.386;2022-12-18T10:03:49;34.57;;;15.40;;
12658;SDS011;6394;52.488;13.386;2022-12-18T10:06:20;35.37;;;16.53;;
12658;SDS011;6394;52.488;13.386;2022-12-18T10:08:51;34.20;;;15.83;;
12658;SDS011;6394;52.488;13.386;2022-12-18T10:11:22;32.43;;;15.20;;
12658;SDS011;6394;52.488;13.386;2022-12-18T10:13:53;33.83;;;15.00;;
12658;SDS011;6394;52.488;13.386;2022-12-18T10:16:23;37.97;;;18.17;;
12658;SDS011;6394;52.488;13.386;2022-12-18T10:18:59;39.07;;;16.77;;
12658;SDS011;6394;52.488;13.386;2022-12-18T10:21:31;34.00;;;16.23;;
12658;SDS011;6394;52.488;13.386;2022-12-18T10:24:02;38.03;;;19.63;;
12658;SDS011;6394;52.488;13.386;2022-12-18T10:26:32;34.13;;;16.97;;
12658;SDS011;6394;52.488;13.386;2022-12-18T10:28:59;40.90;;;17.33;;
12658;SDS011;6394;52.488;13.386;2022-12-18T10:31:27;36.87;;;16.90;;
12658;SDS011;6394;52.488;13.386;2022-12-18T10:33:54;36.87;;;17.27;;
12658;SDS011;6394;52.488;13.386;2022-12-18T10:36:22;35.87;;;17.07;;
12658;SDS011;6394;52.488;13.386;2022-12-18T10:38:51;35.03;;;16.63;;
12658;SDS011;6394;52.488;13.386;2022-12-18T10:41:25;34.67;;;15.93;;
12658;SDS011;6394;52.488;13.386;2022-12-18T10:46:34;32.93;;;15.70;;
12658;SDS011;6394;52.488;13.386;2022-12-18T10:49:02;32.83;;;16.07;;
12658;SDS011;6394;52.488;13.386;2022-12-18T10:51:30;39.20;;;17.50;;
12658;SDS011;6394;52.488;13.386;2022-12-18T10:54:00;37.63;;;17.90;;
12658;SDS011;6394;52.488;13.386;2022-12-18T10:56:28;34.77;;;17.30;;
12658;SDS011;6394;52.488;13.386;2022-12-18T10:58:57;35.23;;;17.37;;
12658;SDS011;6394;52.488;13.386;2022-12-18T11:01:25;37.17;;;17.50;;
12658;SDS011;6394;52.488;13.386;2022-12-18T11:03:59;41.23;;;16.83;;
12658;SDS011;6394;52.488;13.386;2022-12-18T11:06:27;38.53;;;18.33;;
12658;SDS011;6394;52.488;13.386;2022-12-18T11:08:58;33.90;;;16.60;;
12658;SDS011;6394;52.488;13.386;2022-12-18T11:11:27;35.57;;;18.17;;
12658;SDS011;6394;52.488;13.386;2022-12-18T11:13:58;36.70;;;17.03;;
12658;SDS011;6394;52.488;13.386;2022-12-18T11:16:26;38.33;;;17.73;;
12658;SDS011;6394;52.488;13.386;2022-12-18T11:18:55;39.53;;;18.37;;
12658;SDS011;6394;52.488;13.386;2022-12-18T11:21:38;33.90;;;17.03;;
12658;SDS011;6394;52.488;13.386;2022-12-18T11:24:07;38.33;;;17.57;;
12658;SDS011;6394;52.488;13.386;2022-12-18T11:26:45;34.67;;;15.87;;
12658;SDS011;6394;52.488;13.386;2022-12-18T11:29:16;33.97;;;16.67;;
12658;SDS011;6394;52.488;13.386;2022-12-18T11:31:43;35.63;;;16.63;;
12658;SDS011;6394;52.488;13.386;2022-12-18T11:34:11;32.97;;;15.57;;
12658;SDS011;6394;52.488;13.386;2022-12-18T11:36:41;35.53;;;15.70;;
12658;SDS011;6394;52.488;13.386;2022-12-18T11:39:10;32.90;;;15.47;;
12658;SDS011;6394;52.488;13.386;2022-12-18T11:41:41;26.17;;;14.37;;
12658;SDS011;6394;52.488;13.386;2022-12-18T11:44:28;26.20;;;13.20;;
12658;SDS011;6394;52.488;13.386;2022-12-18T11:47:00;30.60;;;14.17;;
12658;SDS011;6394;52.488;13.386;2022-12-18T11:49:28;30.30;;;14.53;;
12658;SDS011;6394;52.488;13.386;2022-12-18T11:51:58;29.37;;;13.57;;
12658;SDS011;6394;52.488;13.386;2022-12-18T11:54:27;30.33;;;15.33;;
12658;SDS011;6394;52.488;13.386;2022-12-18T11:56:55;25.17;;;12.60;;
12658;SDS011;6394;52.488;13.386;2022-12-18T11:59:26;30.37;;;13.13;;
12658;SDS011;6394;52.488;13.386;2022-12-18T12:01:59;31.97;;;14.40;;
12658;SDS011;6394;52.488;13.386;2022-12-18T12:04:33;25.53;;;12.87;;
12658;SDS011;6394;52.488;13.386;2022-12-18T12:07:07;29.43;;;14.20;;
12658;SDS011;6394;52.488;13.386;2022-12-18T12:09:40;26.23;;;12.70;;
12658;SDS011;6394;52.488;13.386;2022-12-18T12:12:16;23.13;;;13.00;;
12658;SDS011;6394;52.488;13.386;2022-12-18T12:14:49;26.17;;;14.37;;
12658;SDS011;6394;52.488;13.386;2022-12-18T12:17:25;32.17;;;14.83;;
12658;SDS011;6394;52.488;13.386;2022-12-18T12:19:55;25.37;;;13.63;;
12658;SDS011;6394;52.488;13.386;2022-12-18T12:22:25;27.93;;;13.97;;
12658;SDS011;6394;52.488;13.386;2022-12-18T12:25:01;27.03;;;13.50;;
12658;SDS011;6394;52.488;13.386;2022-12-18T12:27:34;25.37;;;13.50;;
12658;SDS011;6394;52.488;13.386;2022-12-18T12:30:05;23.83;;;12.53;;
12658;SDS011;6394;52.488;13.386;2022-12-18T12:32:38;23.10;;;12.67;;
12658;SDS011;6394;52.488;13.386;2022-12-18T12:35:12;23.27;;;12.97;;
12658;SDS011;6394;52.488;13.386;2022-12-18T12:53:02;32.80;;;14.93;;
12658;SDS011;6394;52.488;13.386;2022-12-18T12:55:33;25.93;;;13.73;;
12658;SDS011;6394;52.488;13.386;2022-12-18T12:58:02;28.87;;;14.37;;
12658;SDS011;6394;52.488;13.386;2022-12-18T13:00:35;28.17;;;14.27;;
12658;SDS011;6394;52.488;13.386;2022-12-18T13:03:07;28.17;;;13.93;;
12658;SDS011;6394;52.488;13.386;2022-12-18T13:05:40;27.43;;;14.73;;
12658;SDS011;6394;52.488;13.386;2022-12-18T13:08:10;27.10;;;14.80;;
12658;SDS011;6394;52.488;13.386;2022-12-18T13:10:38;28.33;;;13.70;;
12658;SDS011;6394;52.488;13.386;2022-12-18T13:13:06;30.27;;;15.27;;
12658;SDS011;6394;52.488;13.386;2022-12-18T13:15:36;25.37;;;14.43;;
12658;SDS011;6394;52.488;13.386;2022-12-18T13:18:17;26.47;;;14.47;;
12658;SDS011;6394;52.488;13.386;2022-12-18T13:20:45;28.30;;;14.77;;
12658;SDS011;6394;52.488;13.386;2022-12-18T13:23:25;25.97;;;14.27;;
12658;SDS011;6394;52.488;13.386;2022-12-18T13:25:53;28.03;;;14.83;;
12658;SDS011;6394;52.488;13.386;2022-12-18T13:28:21;28.97;;;15.27;;
12658;SDS011;6394;52.488;13.386;2022-12-18T13:30:54;29.80;;;16.60;;
12658;SDS011;6394;52.488;13.386;2022-12-18T13:36:25;28.33;;;16.30;;
12658;SDS011;6394;52.488;13.386;2022-12-18T13:41:39;25.50;;;14.20;;
12658;SDS011;6394;52.488;13.386;2022-12-18T13:44:10;27.00;;;16.40;;
12658;SDS011;6394;52.488;13.386;2022-12-18T13:46:42;27.17;;;15.30;;
12658;SDS011;6394;52.488;13.386;2022-12-18T13:49:17;25.43;;;14.70;;
12658;SDS011;6394;52.488;13.386;2022-12-18T13:51:47;26.00;;;15.10;;
12658;SDS011;6394;52.488;13.386;2022-12-18T13:54:18;26.60;;;15.77;;
12658;SDS011;6394;52.488;13.386;2022-12-18T13:56:47;29.27;;;16.57;;
12658;SDS011;6394;52.488;13.386;2022-12-18T13:59:16;32.37;;;17.80;;
12658;SDS011;6394;52.488;13.386;2022-12-18T14:01:44;35.00;;;18.77;;
12658;SDS011;6394;52.488;13.386;2022-12-18T14:04:16;30.70;;;17.87;;
12658;SDS011;6394;52.488;13.386;2022-12-18T14:06:45;33.03;;;19.27;;
12658;SDS011;6394;52.488;13.386;2022-12-18T14:09:13;34.17;;;19.33;;
12658;SDS011;6394;52.488;13.386;2022-12-18T14:11:47;32.37;;;18.30;;
12658;SDS011;6394;52.488;13.386;2022-12-18T14:14:15;35.87;;;20.03;;
12658;SDS011;6394;52.488;13.386;2022-12-18T14:16:43;33.87;;;19.63;;
12658;SDS011;6394;52.488;13.386;2022-12-18T14:19:12;30.50;;;18.53;;
12658;SDS011;6394;52.488;13.386;2022-12-18T14:21:44;36.17;;;20.53;;
12658;SDS011;6394;52.488;13.386;2022-12-18T14:24:13;37.50;;;21.27;;
12658;SDS011;6394;52.488;13.386;2022-12-18T14:26:41;41.07;;;22.33;;
12658;SDS011;6394;52.488;13.386;2022-12-18T14:29:20;33.60;;;20.20;;
12658;SDS011;6394;52.488;13.386;2022-12-18T14:34:30;32.83;;;19.23;;
12658;SDS011;6394;52.488;13.386;2022-12-18T14:36:57;33.43;;;18.87;;
12658;SDS011;6394;52.488;13.386;2022-12-18T14:39:24;35.40;;;18.67;;
12658;SDS011;6394;52.488;13.386;2022-12-18T14:41:52;31.27;;;18.27;;
12658;SDS011;6394;52.488;13.386;2022-12-18T14:44:20;32.47;;;19.03;;
12658;SDS011;6394;52.488;13.386;2022-12-18T14:46:48;31.80;;;18.70;;
12658;SDS011;6394;52.488;13.386;2022-12-18T14:49:21;32.63;;;17.97;;
12658;SDS011;6394;52.488;13.386;2022-12-18T14:51:49;32.13;;;18.30;;
12658;SDS011;6394;52.488;13.386;2022-12-18T14:54:17;28.90;;;17.37;;
12658;SDS011;6394;52.488;13.386;2022-12-18T14:56:46;29.23;;;17.07;;
12658;SDS011;6394;52.488;13.386;2022-12-18T14:59:14;27.70;;;16.13;;
12658;SDS011;6394;52.488;13.386;2022-12-18T15:01:46;27.47;;;15.90;;